sensor_id;sensor_type;location;lat;lon;timestamp;temperature;humidity
14210;DHT22;7188;56.070;12.698;2023-05-20T00:01:39;8.10;99.90
14210;DHT22;7188;56.070;12.698;2023-05-20T00:04:05;8.10;1.00
14210;DHT22;7188;56.070;12.698;2023-05-20T00:06:30;8.20;1.00
14210;DHT22;7188;56.070;12.698;2023-05-20T00:08:56;8.10;99.90
14210;DHT22;7188;56.070;12.698;2023-05-20T00:11:24;8.00;99.90
14210;DHT22;7188;56.070;12.698;2023-05-20T00:13:50;8.10;1.00
14210;DHT22;7188;56.070;12.698;2023-05-20T00:16:16;8.20;1.00
14210;DHT22;7188;56.070;12.698;2023-05-20T00:18:41;8.20;1.00
14210;DHT22;7188;56.070;12.698;2023-05-20T00:21:07;8.40;99.90
14210;DHT22;7188;56.070;12.698;2023-05-20T00:23:33;8.60;2.90
14210;DHT22;7188;56.070;12.698;2023-05-20T00:25:58;8.60;1.00
14210;DHT22;7188;56.070;12.698;2023-05-20T00:28:24;8.40;1.00
14210;DHT22;7188;56.070;12.698;2023-05-20T00:30:50;8.30;1.00
14210;DHT22;7188;56.070;12.698;2023-05-20T00:33:17;8.30;1.00
14210;DHT22;7188;56.070;12.698;2023-05-20T00:35:42;8.20;1.00
14210;DHT22;7188;56.070;12.698;2023-05-20T00:38:08;8.20;1.00
14210;DHT22;7188;56.070;12.698;2023-05-20T00:40:35;8.10;99.90
14210;DHT22;7188;56.070;12.698;2023-05-20T00:43:01;8.00;99.90
14210;DHT22;7188;56.070;12.698;2023-05-20T00:45:27;8.00;99.90
14210;DHT22;7188;56.070;12.698;2023-05-20T00:47:52;7.90;99.90
14210;DHT22;7188;56.070;12.698;2023-05-20T00:50:21;7.80;99.90
14210;DHT22;7188;56.070;12.698;2023-05-20T00:52:47;7.80;99.90
14210;DHT22;7188;56.070;12.698;2023-05-20T00:55:16;7.90;99.90
14210;DHT22;7188;56.070;12.698;2023-05-20T00:57:41;7.80;1.00
14210;DHT22;7188;56.070;12.698;2023-05-20T01:00:08;7.80;1.00
14210;DHT22;7188;56.070;12.698;2023-05-20T01:02:35;7.80;1.00
14210;DHT22;7188;56.070;12.698;2023-05-20T01:05:00;7.80;1.00
14210;DHT22;7188;56.070;12.698;2023-05-20T01:07:26;7.80;1.00
14210;DHT22;7188;56.070;12.698;2023-05-20T01:09:52;7.70;99.90
14210;DHT22;7188;56.070;12.698;2023-05-20T01:14:53;7.80;99.90
14210;DHT22;7188;56.070;12.698;2023-05-20T01:17:24;7.70;99.90
14210;DHT22;7188;56.070;12.698;2023-05-20T01:19:53;7.70;99.90
14210;DHT22;7188;56.070;12.698;2023-05-20T01:22:26;7.70;1.00
14210;DHT22;7188;56.070;12.698;2023-05-20T01:24:52;7.80;99.90
14210;DHT22;7188;56.070;12.698;2023-05-20T01:27:19;7.70;99.90
14210;DHT22;7188;56.070;12.698;2023-05-20T01:29:48;7.60;99.90
14210;DHT22;7188;56.070;12.698;2023-05-20T01:32:21;7.60;28.80
14210;DHT22;7188;56.070;12.698;2023-05-20T01:34:48;7.50;1.60
14210;DHT22;7188;56.070;12.698;2023-05-20T01:37:17;7.50;15.50
14210;DHT22;7188;56.070;12.698;2023-05-20T01:39:45;7.60;90.70
14210;DHT22;7188;56.070;12.698;2023-05-20T01:42:13;7.60;32.20
14210;DHT22;7188;56.070;12.698;2023-05-20T01:44:39;7.60;78.80
14210;DHT22;7188;56.070;12.698;2023-05-20T01:47:06;7.70;93.70
14210;DHT22;7188;56.070;12.698;2023-05-20T01:49:31;7.80;97.30
14210;DHT22;7188;56.070;12.698;2023-05-20T01:51:58;7.60;1.00
14210;DHT22;7188;56.070;12.698;2023-05-20T01:54:23;7.50;1.00
14210;DHT22;7188;56.070;12.698;2023-05-20T01:56:49;7.40;1.00
14210;DHT22;7188;56.070;12.698;2023-05-20T01:59:15;7.30;1.00
14210;DHT22;7188;56.070;12.698;2023-05-20T02:01:41;7.30;1.00
14210;DHT22;7188;56.070;12.698;2023-05-20T02:04:07;7.20;12.30
14210;DHT22;7188;56.070;12.698;2023-05-20T02:06:33;7.10;35.60
14210;DHT22;7188;56.070;12.698;2023-05-20T02:08:58;7.10;57.00
14210;DHT22;7188;56.070;12.698;2023-05-20T02:11:24;7.10;99.90
14210;DHT22;7188;56.070;12.698;2023-05-20T02:13:50;7.10;99.90
14210;DHT22;7188;56.070;12.698;2023-05-20T02:16:16;7.10;99.90
14210;DHT22;7188;56.070;12.698;2023-05-20T02:18:42;7.10;99.90
14210;DHT22;7188;56.070;12.698;2023-05-20T02:21:08;7.10;1.00
14210;DHT22;7188;56.070;12.698;2023-05-20T02:23:34;7.20;1.00
14210;DHT22;7188;56.070;12.698;2023-05-20T02:26:00;7.10;1.00
14210;DHT22;7188;56.070;12.698;2023-05-20T02:28:26;7.00;1.00
14210;DHT22;7188;56.070;12.698;2023-05-20T02:30:52;6.90;1.00
14210;DHT22;7188;56.070;12.698;2023-05-20T02:33:20;6.80;1.00
14210;DHT22;7188;56.070;12.698;2023-05-20T02:35:46;6.80;1.00
14210;DHT22;7188;56.070;12.698;2023-05-20T02:38:12;6.70;1.00
14210;DHT22;7188;56.070;12.698;2023-05-20T02:40:37;6.60;1.00
14210;DHT22;7188;56.070;12.698;2023-05-20T02:43:03;6.60;1.00
14210;DHT22;7188;56.070;12.698;2023-05-20T02:45:29;6.60;1.00
14210;DHT22;7188;56.070;12.698;2023-05-20T02:47:55;6.50;1.00
14210;DHT22;7188;56.070;12.698;2023-05-20T02:50:20;6.60;1.00
14210;DHT22;7188;56.070;12.698;2023-05-20T02:52:46;6.60;48.00
14210;DHT22;7188;56.070;12.698;2023-05-20T02:55:12;6.50;1.00
14210;DHT22;7188;56.070;12.698;2023-05-20T02:57:41;6.50;1.00
14210;DHT22;7188;56.070;12.698;2023-05-20T03:00:07;6.60;99.90
14210;DHT22;7188;56.070;12.698;2023-05-20T03:02:36;6.50;55.90
14210;DHT22;7188;56.070;12.698;2023-05-20T03:05:02;6.40;13.20
14210;DHT22;7188;56.070;12.698;2023-05-20T03:07:28;6.40;1.00
14210;DHT22;7188;56.070;12.698;2023-05-20T03:09:54;6.40;3.50
14210;DHT22;7188;56.070;12.698;2023-05-20T03:12:21;6.50;99.90
14210;DHT22;7188;56.070;12.698;2023-05-20T03:14:50;6.80;99.90
14210;DHT22;7188;56.070;12.698;2023-05-20T03:17:20;7.10;99.90
14210;DHT22;7188;56.070;12.698;2023-05-20T03:19:46;7.40;99.90
14210;DHT22;7188;56.070;12.698;2023-05-20T03:22:11;7.60;61.00
14210;DHT22;7188;56.070;12.698;2023-05-20T03:24:37;7.90;1.00
14210;DHT22;7188;56.070;12.698;2023-05-20T03:27:03;8.20;99.90
14210;DHT22;7188;56.070;12.698;2023-05-20T03:29:28;8.70;99.90
14210;DHT22;7188;56.070;12.698;2023-05-20T03:31:54;9.50;1.00
14210;DHT22;7188;56.070;12.698;2023-05-20T03:34:20;9.90;1.00
14210;DHT22;7188;56.070;12.698;2023-05-20T03:36:45;9.90;99.90
14210;DHT22;7188;56.070;12.698;2023-05-20T03:39:11;9.90;99.90
14210;DHT22;7188;56.070;12.698;2023-05-20T03:41:37;9.90;99.90
14210;DHT22;7188;56.070;12.698;2023-05-20T03:44:02;10.00;99.90
14210;DHT22;7188;56.070;12.698;2023-05-20T03:46:28;10.10;99.90
14210;DHT22;7188;56.070;12.698;2023-05-20T03:48:55;10.10;99.90
14210;DHT22;7188;56.070;12.698;2023-05-20T03:51:21;10.20;99.90
14210;DHT22;7188;56.070;12.698;2023-05-20T03:53:47;10.20;99.90
14210;DHT22;7188;56.070;12.698;2023-05-20T03:56:12;10.50;99.90
14210;DHT22;7188;56.070;12.698;2023-05-20T03:58:38;10.80;99.90
14210;DHT22;7188;56.070;12.698;2023-05-20T04:01:04;11.00;63.50
14210;DHT22;7188;56.070;12.698;2023-05-20T04:03:29;11.00;1.00
14210;DHT22;7188;56.070;12.698;2023-05-20T04:05:55;11.00;33.80
14210;DHT22;7188;56.070;12.698;2023-05-20T04:08:21;10.70;10.30
14210;DHT22;7188;56.070;12.698;2023-05-20T04:10:54;10.60;28.90
14210;DHT22;7188;56.070;12.698;2023-05-20T04:13:20;10.60;8.20
14210;DHT22;7188;56.070;12.698;2023-05-20T04:15:47;10.50;6.90
14210;DHT22;7188;56.070;12.698;2023-05-20T04:18:12;10.70;19.20
14210;DHT22;7188;56.070;12.698;2023-05-20T04:20:39;10.80;44.30
14210;DHT22;7188;56.070;12.698;2023-05-20T04:23:06;10.90;1.00
14210;DHT22;7188;56.070;12.698;2023-05-20T04:25:31;10.90;1.00
14210;DHT22;7188;56.070;12.698;2023-05-20T04:27:59;11.00;1.00
14210;DHT22;7188;56.070;12.698;2023-05-20T04:30:24;11.20;1.00
14210;DHT22;7188;56.070;12.698;2023-05-20T04:32:50;11.30;1.00
14210;DHT22;7188;56.070;12.698;2023-05-20T04:35:16;11.40;1.00
14210;DHT22;7188;56.070;12.698;2023-05-20T04:37:42;11.50;1.00
14210;DHT22;7188;56.070;12.698;2023-05-20T04:40:18;11.60;1.00
14210;DHT22;7188;56.070;12.698;2023-05-20T04:42:45;11.90;1.00
14210;DHT22;7188;56.070;12.698;2023-05-20T04:45:11;12.20;1.00
14210;DHT22;7188;56.070;12.698;2023-05-20T04:47:38;12.50;1.00
14210;DHT22;7188;56.070;12.698;2023-05-20T04:50:08;12.70;1.00
14210;DHT22;7188;56.070;12.698;2023-05-20T04:52:38;12.80;1.00
14210;DHT22;7188;56.070;12.698;2023-05-20T04:55:08;13.00;1.00
14210;DHT22;7188;56.070;12.698;2023-05-20T04:57:34;13.30;1.00
14210;DHT22;7188;56.070;12.698;2023-05-20T05:00:00;13.50;1.00
14210;DHT22;7188;56.070;12.698;2023-05-20T05:02:26;13.70;1.00
14210;DHT22;7188;56.070;12.698;2023-05-20T05:04:52;13.90;1.00
14210;DHT22;7188;56.070;12.698;2023-05-20T05:07:18;14.10;1.00
14210;DHT22;7188;56.070;12.698;2023-05-20T05:09:43;14.20;1.00
14210;DHT22;7188;56.070;12.698;2023-05-20T05:12:09;14.40;1.00
14210;DHT22;7188;56.070;12.698;2023-05-20T05:14:34;14.50;1.00
14210;DHT22;7188;56.070;12.698;2023-05-20T05:17:00;14.70;1.00
14210;DHT22;7188;56.070;12.698;2023-05-20T05:19:26;14.80;1.00
14210;DHT22;7188;56.070;12.698;2023-05-20T05:21:52;14.70;1.00
14210;DHT22;7188;56.070;12.698;2023-05-20T05:24:17;14.70;1.00
14210;DHT22;7188;56.070;12.698;2023-05-20T05:26:43;14.90;1.00
14210;DHT22;7188;56.070;12.698;2023-05-20T05:29:09;15.00;1.00
14210;DHT22;7188;56.070;12.698;2023-05-20T05:31:35;15.00;1.00
14210;DHT22;7188;56.070;12.698;2023-05-20T05:34:00;15.10;1.00
14210;DHT22;7188;56.070;12.698;2023-05-20T05:36:26;15.10;1.00
14210;DHT22;7188;56.070;12.698;2023-05-20T05:38:51;15.20;1.00
14210;DHT22;7188;56.070;12.698;2023-05-20T05:41:17;15.20;1.00
14210;DHT22;7188;56.070;12.698;2023-05-20T05:43:43;15.30;1.00
14210;DHT22;7188;56.070;12.698;2023-05-20T05:46:08;15.40;1.00
14210;DHT22;7188;56.070;12.698;2023-05-20T05:48:35;15.50;1.00
14210;DHT22;7188;56.070;12.698;2023-05-20T05:51:01;15.60;1.00
14210;DHT22;7188;56.070;12.698;2023-05-20T05:53:27;15.50;1.00
14210;DHT22;7188;56.070;12.698;2023-05-20T05:55:52;15.50;1.00
14210;DHT22;7188;56.070;12.698;2023-05-20T05:58:18;15.60;1.00
14210;DHT22;7188;56.070;12.698;2023-05-20T06:00:44;15.60;1.00
14210;DHT22;7188;56.070;12.698;2023-05-20T06:03:09;15.60;1.00
14210;DHT22;7188;56.070;12.698;2023-05-20T06:05:35;15.60;1.00
14210;DHT22;7188;56.070;12.698;2023-05-20T06:08:01;15.80;1.00
14210;DHT22;7188;56.070;12.698;2023-05-20T06:10:26;15.90;1.00
14210;DHT22;7188;56.070;12.698;2023-05-20T06:12:52;16.00;1.00
14210;DHT22;7188;56.070;12.698;2023-05-20T06:15:18;16.10;1.00
14210;DHT22;7188;56.070;12.698;2023-05-20T06:17:43;16.00;1.00
14210;DHT22;7188;56.070;12.698;2023-05-20T06:20:09;16.00;1.00
14210;DHT22;7188;56.070;12.698;2023-05-20T06:22:35;16.00;1.00
14210;DHT22;7188;56.070;12.698;2023-05-20T06:25:01;16.00;1.00
14210;DHT22;7188;56.070;12.698;2023-05-20T06:27:27;16.10;1.00
14210;DHT22;7188;56.070;12.698;2023-05-20T06:29:53;16.20;1.00
14210;DHT22;7188;56.070;12.698;2023-05-20T06:32:18;16.30;1.00
14210;DHT22;7188;56.070;12.698;2023-05-20T06:34:44;16.30;1.00
14210;DHT22;7188;56.070;12.698;2023-05-20T06:37:10;16.30;1.00
14210;DHT22;7188;56.070;12.698;2023-05-20T06:39:36;16.40;1.00
14210;DHT22;7188;56.070;12.698;2023-05-20T06:42:02;16.30;1.00
14210;DHT22;7188;56.070;12.698;2023-05-20T06:44:27;16.30;1.00
14210;DHT22;7188;56.070;12.698;2023-05-20T06:46:53;16.20;1.00
14210;DHT22;7188;56.070;12.698;2023-05-20T06:49:19;16.20;1.00
14210;DHT22;7188;56.070;12.698;2023-05-20T06:51:45;16.00;1.00
14210;DHT22;7188;56.070;12.698;2023-05-20T06:54:10;16.10;1.00
14210;DHT22;7188;56.070;12.698;2023-05-20T06:56:36;16.20;1.00
14210;DHT22;7188;56.070;12.698;2023-05-20T06:59:01;16.30;1.00
14210;DHT22;7188;56.070;12.698;2023-05-20T07:01:27;16.50;1.00
14210;DHT22;7188;56.070;12.698;2023-05-20T07:03:53;16.60;1.00
14210;DHT22;7188;56.070;12.698;2023-05-20T07:06:18;16.40;1.00
14210;DHT22;7188;56.070;12.698;2023-05-20T07:08:44;16.40;1.00
14210;DHT22;7188;56.070;12.698;2023-05-20T07:11:10;16.60;1.00
14210;DHT22;7188;56.070;12.698;2023-05-20T07:13:36;16.30;1.00
14210;DHT22;7188;56.070;12.698;2023-05-20T07:16:02;16.50;1.00
14210;DHT22;7188;56.070;12.698;2023-05-20T07:18:27;16.60;1.00
14210;DHT22;7188;56.070;12.698;2023-05-20T07:20:53;16.80;1.00
14210;DHT22;7188;56.070;12.698;2023-05-20T07:23:22;16.90;1.00
14210;DHT22;7188;56.070;12.698;2023-05-20T07:25:50;17.00;1.00
14210;DHT22;7188;56.070;12.698;2023-05-20T07:28:16;16.80;1.00
14210;DHT22;7188;56.070;12.698;2023-05-20T07:31:01;16.90;1.00
14210;DHT22;7188;56.070;12.698;2023-05-20T07:33:27;17.10;1.00
14210;DHT22;7188;56.070;12.698;2023-05-20T07:35:54;17.20;1.00
14210;DHT22;7188;56.070;12.698;2023-05-20T07:38:20;17.30;1.00
14210;DHT22;7188;56.070;12.698;2023-05-20T07:40:45;17.30;1.00
14210;DHT22;7188;56.070;12.698;2023-05-20T07:43:11;17.40;1.00
14210;DHT22;7188;56.070;12.698;2023-05-20T07:45:37;17.60;1.00
14210;DHT22;7188;56.070;12.698;2023-05-20T07:48:03;17.80;1.00
14210;DHT22;7188;56.070;12.698;2023-05-20T07:50:29;17.70;1.00
14210;DHT22;7188;56.070;12.698;2023-05-20T07:52:55;17.60;1.00
14210;DHT22;7188;56.070;12.698;2023-05-20T07:55:21;17.60;1.00
14210;DHT22;7188;56.070;12.698;2023-05-20T07:57:48;17.50;1.00
14210;DHT22;7188;56.070;12.698;2023-05-20T08:00:14;17.60;1.00
14210;DHT22;7188;56.070;12.698;2023-05-20T08:02:40;17.80;1.00
14210;DHT22;7188;56.070;12.698;2023-05-20T08:05:06;17.90;1.00
14210;DHT22;7188;56.070;12.698;2023-05-20T08:07:33;18.00;1.00
14210;DHT22;7188;56.070;12.698;2023-05-20T08:09:59;18.10;1.00
14210;DHT22;7188;56.070;12.698;2023-05-20T08:12:25;18.30;1.00
14210;DHT22;7188;56.070;12.698;2023-05-20T08:14:52;18.20;1.00
14210;DHT22;7188;56.070;12.698;2023-05-20T08:17:21;18.10;1.00
14210;DHT22;7188;56.070;12.698;2023-05-20T08:19:46;18.20;1.00
14210;DHT22;7188;56.070;12.698;2023-05-20T08:22:12;18.30;1.00
14210;DHT22;7188;56.070;12.698;2023-05-20T08:24:38;18.30;1.00
14210;DHT22;7188;56.070;12.698;2023-05-20T08:27:04;18.50;1.00
14210;DHT22;7188;56.070;12.698;2023-05-20T08:29:29;18.70;1.00
14210;DHT22;7188;56.070;12.698;2023-05-20T08:31:55;18.60;1.00
14210;DHT22;7188;56.070;12.698;2023-05-20T08:34:21;18.60;1.00
14210;DHT22;7188;56.070;12.698;2023-05-20T08:36:47;18.40;99.90
14210;DHT22;7188;56.070;12.698;2023-05-20T08:39:13;18.40;1.00
14210;DHT22;7188;56.070;12.698;2023-05-20T08:41:39;18.40;1.00
14210;DHT22;7188;56.070;12.698;2023-05-20T08:44:07;18.20;1.00
14210;DHT22;7188;56.070;12.698;2023-05-20T08:46:35;18.20;1.00
14210;DHT22;7188;56.070;12.698;2023-05-20T08:49:01;18.10;1.00
14210;DHT22;7188;56.070;12.698;2023-05-20T08:51:28;18.30;1.00
14210;DHT22;7188;56.070;12.698;2023-05-20T08:53:58;18.20;1.00
14210;DHT22;7188;56.070;12.698;2023-05-20T08:56:24;18.40;1.00
14210;DHT22;7188;56.070;12.698;2023-05-20T08:59:10;18.40;1.00
14210;DHT22;7188;56.070;12.698;2023-05-20T09:01:41;18.30;1.00
14210;DHT22;7188;56.070;12.698;2023-05-20T09:04:09;18.20;1.00
14210;DHT22;7188;56.070;12.698;2023-05-20T09:06:44;18.30;1.00
14210;DHT22;7188;56.070;12.698;2023-05-20T09:09:12;18.40;1.00
14210;DHT22;7188;56.070;12.698;2023-05-20T09:11:41;18.50;1.00
14210;DHT22;7188;56.070;12.698;2023-05-20T09:14:08;18.50;99.90
14210;DHT22;7188;56.070;12.698;2023-05-20T09:16:34;18.60;1.00
14210;DHT22;7188;56.070;12.698;2023-05-20T09:18:59;18.80;1.00
14210;DHT22;7188;56.070;12.698;2023-05-20T09:21:29;18.90;99.90
14210;DHT22;7188;56.070;12.698;2023-05-20T09:23:55;18.90;99.90
14210;DHT22;7188;56.070;12.698;2023-05-20T09:26:28;18.70;99.90
14210;DHT22;7188;56.070;12.698;2023-05-20T09:28:58;18.50;99.90
14210;DHT22;7188;56.070;12.698;2023-05-20T09:31:29;18.40;99.90
14210;DHT22;7188;56.070;12.698;2023-05-20T09:33:56;18.40;99.90
14210;DHT22;7188;56.070;12.698;2023-05-20T09:36:22;18.40;99.90
14210;DHT22;7188;56.070;12.698;2023-05-20T09:38:59;18.40;99.90
14210;DHT22;7188;56.070;12.698;2023-05-20T09:41:38;18.50;99.90
14210;DHT22;7188;56.070;12.698;2023-05-20T09:44:05;18.70;99.90
14210;DHT22;7188;56.070;12.698;2023-05-20T09:46:32;18.70;99.90
14210;DHT22;7188;56.070;12.698;2023-05-20T09:48:58;18.70;99.90
14210;DHT22;7188;56.070;12.698;2023-05-20T09:51:26;18.90;99.90
14210;DHT22;7188;56.070;12.698;2023-05-20T09:53:52;18.80;99.90
14210;DHT22;7188;56.070;12.698;2023-05-20T09:56:19;18.90;99.90
14210;DHT22;7188;56.070;12.698;2023-05-20T09:58:47;19.00;99.90
14210;DHT22;7188;56.070;12.698;2023-05-20T10:01:14;19.00;99.90
14210;DHT22;7188;56.070;12.698;2023-05-20T10:03:39;19.00;99.90
14210;DHT22;7188;56.070;12.698;2023-05-20T10:06:12;19.00;99.90
14210;DHT22;7188;56.070;12.698;2023-05-20T10:14:46;19.50;99.90
14210;DHT22;7188;56.070;12.698;2023-05-20T10:17:23;19.60;99.90
14210;DHT22;7188;56.070;12.698;2023-05-20T10:19:57;19.70;99.90
14210;DHT22;7188;56.070;12.698;2023-05-20T10:22:29;19.60;99.90
14210;DHT22;7188;56.070;12.698;2023-05-20T10:25:03;19.50;99.90
14210;DHT22;7188;56.070;12.698;2023-05-20T10:27:42;19.40;99.90
14210;DHT22;7188;56.070;12.698;2023-05-20T10:30:18;19.50;99.90
14210;DHT22;7188;56.070;12.698;2023-05-20T10:32:57;19.60;99.90
14210;DHT22;7188;56.070;12.698;2023-05-20T10:35:29;19.60;99.90
14210;DHT22;7188;56.070;12.698;2023-05-20T10:38:09;19.70;99.90
14210;DHT22;7188;56.070;12.698;2023-05-20T10:40:36;19.90;99.90
14210;DHT22;7188;56.070;12.698;2023-05-20T10:43:11;19.70;99.90
14210;DHT22;7188;56.070;12.698;2023-05-20T10:45:52;19.70;99.90
14210;DHT22;7188;56.070;12.698;2023-05-20T10:48:30;19.70;99.90
14210;DHT22;7188;56.070;12.698;2023-05-20T10:51:01;19.70;99.90
14210;DHT22;7188;56.070;12.698;2023-05-20T10:53:38;19.80;99.90
14210;DHT22;7188;56.070;12.698;2023-05-20T10:56:16;19.80;99.90
14210;DHT22;7188;56.070;12.698;2023-05-20T10:58:49;20.00;99.90
14210;DHT22;7188;56.070;12.698;2023-05-20T11:01:16;20.00;99.90
14210;DHT22;7188;56.070;12.698;2023-05-20T11:03:44;20.10;99.90
14210;DHT22;7188;56.070;12.698;2023-05-20T11:06:14;19.90;99.90
14210;DHT22;7188;56.070;12.698;2023-05-20T11:08:40;20.10;99.90
14210;DHT22;7188;56.070;12.698;2023-05-20T11:11:06;20.30;99.90
14210;DHT22;7188;56.070;12.698;2023-05-20T11:13:32;20.40;99.90
14210;DHT22;7188;56.070;12.698;2023-05-20T11:15:57;20.50;99.90
14210;DHT22;7188;56.070;12.698;2023-05-20T11:18:26;20.60;99.90
14210;DHT22;7188;56.070;12.698;2023-05-20T11:20:57;20.70;99.90
14210;DHT22;7188;56.070;12.698;2023-05-20T11:23:23;20.90;99.90
14210;DHT22;7188;56.070;12.698;2023-05-20T11:25:52;21.00;99.90
14210;DHT22;7188;56.070;12.698;2023-05-20T11:28:19;20.80;99.90
14210;DHT22;7188;56.070;12.698;2023-05-20T11:30:46;20.60;99.90
14210;DHT22;7188;56.070;12.698;2023-05-20T11:33:14;20.60;99.90
14210;DHT22;7188;56.070;12.698;2023-05-20T11:35:51;20.40;99.90
14210;DHT22;7188;56.070;12.698;2023-05-20T11:38:18;20.30;99.90
14210;DHT22;7188;56.070;12.698;2023-05-20T11:40:49;20.20;99.90
14210;DHT22;7188;56.070;12.698;2023-05-20T11:43:15;20.20;99.90
14210;DHT22;7188;56.070;12.698;2023-05-20T11:45:43;20.10;99.90
14210;DHT22;7188;56.070;12.698;2023-05-20T11:48:09;20.20;99.90
14210;DHT22;7188;56.070;12.698;2023-05-20T11:50:56;20.20;99.90
14210;DHT22;7188;56.070;12.698;2023-05-20T11:53:22;20.30;99.90
14210;DHT22;7188;56.070;12.698;2023-05-20T11:55:55;20.30;99.90
14210;DHT22;7188;56.070;12.698;2023-05-20T11:58:22;20.50;99.90
14210;DHT22;7188;56.070;12.698;2023-05-20T12:00:49;20.70;99.90
14210;DHT22;7188;56.070;12.698;2023-05-20T12:03:15;20.80;99.90
14210;DHT22;7188;56.070;12.698;2023-05-20T12:05:41;20.80;99.90
14210;DHT22;7188;56.070;12.698;2023-05-20T12:08:09;20.70;99.90
14210;DHT22;7188;56.070;12.698;2023-05-20T12:10:35;20.60;99.90
14210;DHT22;7188;56.070;12.698;2023-05-20T12:13:03;20.90;99.90
14210;DHT22;7188;56.070;12.698;2023-05-20T12:15:36;21.10;99.90
14210;DHT22;7188;56.070;12.698;2023-05-20T12:18:02;21.10;99.90
14210;DHT22;7188;56.070;12.698;2023-05-20T12:20:28;21.10;99.90
14210;DHT22;7188;56.070;12.698;2023-05-20T12:22:55;20.90;99.90
14210;DHT22;7188;56.070;12.698;2023-05-20T12:25:22;20.90;99.90
14210;DHT22;7188;56.070;12.698;2023-05-20T12:27:48;20.70;99.90
14210;DHT22;7188;56.070;12.698;2023-05-20T12:30:17;20.40;99.90
14210;DHT22;7188;56.070;12.698;2023-05-20T12:32:43;20.40;99.90
14210;DHT22;7188;56.070;12.698;2023-05-20T12:35:09;20.40;99.90
14210;DHT22;7188;56.070;12.698;2023-05-20T12:37:36;20.40;99.90
14210;DHT22;7188;56.070;12.698;2023-05-20T12:40:03;20.30;99.90
14210;DHT22;7188;56.070;12.698;2023-05-20T12:42:40;20.30;99.90
14210;DHT22;7188;56.070;12.698;2023-05-20T12:45:06;20.30;99.90
14210;DHT22;7188;56.070;12.698;2023-05-20T12:47:33;20.50;99.90
14210;DHT22;7188;56.070;12.698;2023-05-20T12:50:00;20.80;99.90
14210;DHT22;7188;56.070;12.698;2023-05-20T12:52:51;21.00;99.90
14210;DHT22;7188;56.070;12.698;2023-05-20T12:55:16;20.90;99.90
14210;DHT22;7188;56.070;12.698;2023-05-20T12:57:43;20.70;99.90
14210;DHT22;7188;56.070;12.698;2023-05-20T13:00:10;20.50;99.90
14210;DHT22;7188;56.070;12.698;2023-05-20T13:02:37;20.10;99.90
14210;DHT22;7188;56.070;12.698;2023-05-20T13:05:04;20.00;99.90
14210;DHT22;7188;56.070;12.698;2023-05-20T13:07:30;20.00;99.90
14210;DHT22;7188;56.070;12.698;2023-05-20T13:09:57;20.10;99.90
14210;DHT22;7188;56.070;12.698;2023-05-20T13:12:23;20.40;99.90
14210;DHT22;7188;56.070;12.698;2023-05-20T13:14:48;20.60;99.90
14210;DHT22;7188;56.070;12.698;2023-05-20T13:17:14;20.90;99.90
14210;DHT22;7188;56.070;12.698;2023-05-20T13:19:40;20.90;99.90
14210;DHT22;7188;56.070;12.698;2023-05-20T13:22:21;21.00;99.90
14210;DHT22;7188;56.070;12.698;2023-05-20T13:24:47;21.00;99.90
14210;DHT22;7188;56.070;12.698;2023-05-20T13:27:12;21.00;99.90
14210;DHT22;7188;56.070;12.698;2023-05-20T13:29:38;20.70;99.90
14210;DHT22;7188;56.070;12.698;2023-05-20T13:32:04;20.70;99.90
14210;DHT22;7188;56.070;12.698;2023-05-20T13:34:30;20.80;99.90
14210;DHT22;7188;56.070;12.698;2023-05-20T13:36:56;21.00;99.90
14210;DHT22;7188;56.070;12.698;2023-05-20T13:39:21;21.00;99.90
14210;DHT22;7188;56.070;12.698;2023-05-20T13:41:47;21.10;99.90
14210;DHT22;7188;56.070;12.698;2023-05-20T13:44:13;20.90;99.90
14210;DHT22;7188;56.070;12.698;2023-05-20T13:46:38;20.70;99.90
14210;DHT22;7188;56.070;12.698;2023-05-20T13:49:04;20.80;99.90
14210;DHT22;7188;56.070;12.698;2023-05-20T13:51:30;20.80;99.90
14210;DHT22;7188;56.070;12.698;2023-05-20T13:53:56;20.90;99.90
14210;DHT22;7188;56.070;12.698;2023-05-20T13:56:21;20.90;99.90
14210;DHT22;7188;56.070;12.698;2023-05-20T13:58:47;20.70;99.90
14210;DHT22;7188;56.070;12.698;2023-05-20T14:01:13;20.80;99.90
14210;DHT22;7188;56.070;12.698;2023-05-20T14:03:40;20.80;99.90
14210;DHT22;7188;56.070;12.698;2023-05-20T14:06:07;20.80;99.90
14210;DHT22;7188;56.070;12.698;2023-05-20T14:08:33;20.80;99.90
14210;DHT22;7188;56.070;12.698;2023-05-20T14:10:59;20.90;99.90
14210;DHT22;7188;56.070;12.698;2023-05-20T14:13:24;21.20;99.90
14210;DHT22;7188;56.070;12.698;2023-05-20T14:15:51;21.30;99.90
14210;DHT22;7188;56.070;12.698;2023-05-20T14:18:19;21.20;99.90
14210;DHT22;7188;56.070;12.698;2023-05-20T14:20:45;21.10;99.90
14210;DHT22;7188;56.070;12.698;2023-05-20T14:23:11;21.20;99.90
14210;DHT22;7188;56.070;12.698;2023-05-20T14:25:37;21.10;99.90
14210;DHT22;7188;56.070;12.698;2023-05-20T14:28:04;21.10;99.90
14210;DHT22;7188;56.070;12.698;2023-05-20T14:30:29;21.10;99.90
14210;DHT22;7188;56.070;12.698;2023-05-20T14:32:55;20.80;99.90
14210;DHT22;7188;56.070;12.698;2023-05-20T14:35:22;20.80;99.90
14210;DHT22;7188;56.070;12.698;2023-05-20T14:37:47;20.90;99.90
14210;DHT22;7188;56.070;12.698;2023-05-20T14:40:13;21.00;99.90
14210;DHT22;7188;56.070;12.698;2023-05-20T14:42:40;20.90;99.90
14210;DHT22;7188;56.070;12.698;2023-05-20T14:45:06;20.90;99.90
14210;DHT22;7188;56.070;12.698;2023-05-20T14:47:32;20.80;99.90
14210;DHT22;7188;56.070;12.698;2023-05-20T14:49:59;20.90;99.90
14210;DHT22;7188;56.070;12.698;2023-05-20T14:52:25;20.90;99.90
14210;DHT22;7188;56.070;12.698;2023-05-20T14:54:51;21.00;99.90
14210;DHT22;7188;56.070;12.698;2023-05-20T14:57:16;21.00;99.90
14210;DHT22;7188;56.070;12.698;2023-05-20T14:59:42;21.00;99.90
14210;DHT22;7188;56.070;12.698;2023-05-20T15:02:08;21.00;99.90
14210;DHT22;7188;56.070;12.698;2023-05-20T15:04:34;21.10;99.90
14210;DHT22;7188;56.070;12.698;2023-05-20T15:07:00;21.00;99.90
14210;DHT22;7188;56.070;12.698;2023-05-20T15:09:25;21.00;99.90
14210;DHT22;7188;56.070;12.698;2023-05-20T15:11:52;20.90;99.90
14210;DHT22;7188;56.070;12.698;2023-05-20T15:14:17;21.00;99.90
14210;DHT22;7188;56.070;12.698;2023-05-20T15:16:44;20.90;99.90
14210;DHT22;7188;56.070;12.698;2023-05-20T15:19:11;20.90;99.90
14210;DHT22;7188;56.070;12.698;2023-05-20T15:21:38;21.00;99.90
14210;DHT22;7188;56.070;12.698;2023-05-20T15:24:03;20.90;99.90
14210;DHT22;7188;56.070;12.698;2023-05-20T15:26:32;20.80;99.90
14210;DHT22;7188;56.070;12.698;2023-05-20T15:28:58;20.70;99.90
14210;DHT22;7188;56.070;12.698;2023-05-20T15:31:24;20.60;99.90
14210;DHT22;7188;56.070;12.698;2023-05-20T15:33:49;20.70;99.90
14210;DHT22;7188;56.070;12.698;2023-05-20T15:36:15;20.70;99.90
14210;DHT22;7188;56.070;12.698;2023-05-20T15:38:41;20.70;99.90
14210;DHT22;7188;56.070;12.698;2023-05-20T15:41:08;20.70;99.90
14210;DHT22;7188;56.070;12.698;2023-05-20T15:43:36;20.60;99.90
14210;DHT22;7188;56.070;12.698;2023-05-20T15:46:02;20.60;99.90
14210;DHT22;7188;56.070;12.698;2023-05-20T15:48:28;20.50;99.90